sensor_id;sensor_type;location;lat;lon;timestamp;pressure;altitude;pressure_sealevel;temperature;humidity
18784;BME280;9520;50.954;6.968;2023-02-17T00:00:13;101559.38;;;18.01;46.49
18784;BME280;9520;50.954;6.968;2023-02-17T00:00:34;101563.72;;;18.05;46.22
18784;BME280;9520;50.954;6.968;2023-02-17T00:00:56;101555.84;;;18.01;46.44
18784;BME280;9520;50.954;6.968;2023-02-17T00:01:20;101565.56;;;18.03;46.28
18784;BME280;9520;50.954;6.968;2023-02-17T00:01:44;101567.31;;;18.04;46.14
18784;BME280;9520;50.954;6.968;2023-02-17T00:02:05;101562.16;;;17.98;46.38
18784;BME280;9520;50.954;6.968;2023-02-17T00:02:27;101557.28;;;17.85;46.41
18784;BME280;9520;50.954;6.968;2023-02-17T00:02:49;101553.78;;;17.81;46.61
18784;BME280;9520;50.954;6.968;2023-02-17T00:03:11;101559.94;;;17.85;46.69
18784;BME280;9520;50.954;6.968;2023-02-17T00:03:33;101560.72;;;17.88;46.67
18784;BME280;9520;50.954;6.968;2023-02-17T00:03:55;101558.88;;;17.90;46.69
18784;BME280;9520;50.954;6.968;2023-02-17T00:04:18;101565.03;;;17.92;46.72
18784;BME280;9520;50.954;6.968;2023-02-17T00:04:40;101573.09;;;17.91;46.60
18784;BME280;9520;50.954;6.968;2023-02-17T00:05:02;101561.06;;;17.76;46.74
18784;BME280;9520;50.954;6.968;2023-02-17T00:05:25;101574.81;;;17.64;46.97
18784;BME280;9520;50.954;6.968;2023-02-17T00:05:47;101573.75;;;17.69;47.01
18784;BME280;9520;50.954;6.968;2023-02-17T00:06:11;101566.38;;;17.78;47.09
18784;BME280;9520;50.954;6.968;2023-02-17T00:06:33;101567.09;;;17.83;46.74
18784;BME280;9520;50.954;6.968;2023-02-17T00:06:55;101572.38;;;17.86;46.87
18784;BME280;9520;50.954;6.968;2023-02-17T00:07:18;101563.38;;;17.88;46.63
18784;BME280;9520;50.954;6.968;2023-02-17T00:07:40;101557.09;;;17.91;46.67
18784;BME280;9520;50.954;6.968;2023-02-17T00:08:01;101565.78;;;17.96;46.74
18784;BME280;9520;50.954;6.968;2023-02-17T00:08:23;101559.75;;;17.91;46.56
18784;BME280;9520;50.954;6.968;2023-02-17T00:08:46;101548.28;;;17.87;46.57
18784;BME280;9520;50.954;6.968;2023-02-17T00:09:08;101560.41;;;17.97;46.40
18784;BME280;9520;50.954;6.968;2023-02-17T00:09:30;101563.91;;;17.99;46.68
18784;BME280;9520;50.954;6.968;2023-02-17T00:09:52;101562.28;;;17.95;46.66
18784;BME280;9520;50.954;6.968;2023-02-17T00:10:14;101561.28;;;17.98;46.56
18784;BME280;9520;50.954;6.968;2023-02-17T00:10:36;101562.94;;;18.02;46.38
18784;BME280;9520;50.954;6.968;2023-02-17T00:10:58;101560.22;;;18.03;46.30
18784;BME280;9520;50.954;6.968;2023-02-17T00:11:20;101566.47;;;18.02;46.42
18784;BME280;9520;50.954;6.968;2023-02-17T00:11:43;101565.69;;;18.00;46.59
18784;BME280;9520;50.954;6.968;2023-02-17T00:12:06;101568.34;;;18.00;46.51
18784;BME280;9520;50.954;6.968;2023-02-17T00:12:28;101556.09;;;17.93;46.45
18784;BME280;9520;50.954;6.968;2023-02-17T00:12:51;101562.47;;;17.89;46.94
18784;BME280;9520;50.954;6.968;2023-02-17T00:13:13;101560.59;;;17.91;46.85
18784;BME280;9520;50.954;6.968;2023-02-17T00:13:37;101565.88;;;17.65;47.26
18784;BME280;9520;50.954;6.968;2023-02-17T00:13:58;101542.94;;;17.59;47.50
18784;BME280;9520;50.954;6.968;2023-02-17T00:14:21;101562.38;;;17.63;47.43
18784;BME280;9520;50.954;6.968;2023-02-17T00:14:43;101565.81;;;17.66;47.64
18784;BME280;9520;50.954;6.968;2023-02-17T00:15:06;101558.69;;;17.67;47.64
18784;BME280;9520;50.954;6.968;2023-02-17T00:15:27;101561.31;;;17.68;47.53
18784;BME280;9520;50.954;6.968;2023-02-17T00:15:50;101556.75;;;17.72;47.35
18784;BME280;9520;50.954;6.968;2023-02-17T00:16:15;101556.00;;;17.67;47.68
18784;BME280;9520;50.954;6.968;2023-02-17T00:16:38;101560.13;;;17.48;48.06
18784;BME280;9520;50.954;6.968;2023-02-17T00:17:01;101567.81;;;17.58;48.01
18784;BME280;9520;50.954;6.968;2023-02-17T00:17:23;101563.28;;;17.62;47.58
18784;BME280;9520;50.954;6.968;2023-02-17T00:17:45;101552.44;;;17.68;47.75
18784;BME280;9520;50.954;6.968;2023-02-17T00:18:06;101558.50;;;17.73;47.65
18784;BME280;9520;50.954;6.968;2023-02-17T00:18:29;101552.28;;;17.73;47.67
18784;BME280;9520;50.954;6.968;2023-02-17T00:18:52;101557.59;;;17.74;47.51
18784;BME280;9520;50.954;6.968;2023-02-17T00:19:14;101558.31;;;17.79;47.40
18784;BME280;9520;50.954;6.968;2023-02-17T00:19:46;101548.25;;;17.59;47.74
18784;BME280;9520;50.954;6.968;2023-02-17T00:20:09;101569.47;;;17.64;47.64
18784;BME280;9520;50.954;6.968;2023-02-17T00:20:30;101564.22;;;17.61;47.71
18784;BME280;9520;50.954;6.968;2023-02-17T00:20:52;101564.25;;;17.58;47.97
18784;BME280;9520;50.954;6.968;2023-02-17T00:21:16;101562.34;;;17.64;47.76
18784;BME280;9520;50.954;6.968;2023-02-17T00:21:39;101567.53;;;17.69;47.70
18784;BME280;9520;50.954;6.968;2023-02-17T00:22:01;101560.47;;;17.66;47.72
18784;BME280;9520;50.954;6.968;2023-02-17T00:22:24;101543.50;;;17.69;47.66
18784;BME280;9520;50.954;6.968;2023-02-17T00:22:45;101552.81;;;17.54;47.90
18784;BME280;9520;50.954;6.968;2023-02-17T00:23:07;101555.81;;;17.44;48.28
18784;BME280;9520;50.954;6.968;2023-02-17T00:23:29;101550.78;;;17.33;48.68
18784;BME280;9520;50.954;6.968;2023-02-17T00:23:51;101556.72;;;17.43;48.36
18784;BME280;9520;50.954;6.968;2023-02-17T00:24:14;101543.31;;;17.46;48.53
18784;BME280;9520;50.954;6.968;2023-02-17T00:24:37;101553.59;;;17.58;48.36
18784;BME280;9520;50.954;6.968;2023-02-17T00:24:59;101558.75;;;17.65;48.03
18784;BME280;9520;50.954;6.968;2023-02-17T00:25:20;101551.53;;;17.69;48.16
18784;BME280;9520;50.954;6.968;2023-02-17T00:25:43;101557.88;;;17.65;48.05
18784;BME280;9520;50.954;6.968;2023-02-17T00:26:05;101557.94;;;17.62;48.16
18784;BME280;9520;50.954;6.968;2023-02-17T00:26:28;101547.19;;;17.65;47.89
18784;BME280;9520;50.954;6.968;2023-02-17T00:26:49;101560.44;;;17.68;47.93
18784;BME280;9520;50.954;6.968;2023-02-17T00:27:13;101551.94;;;17.54;48.16
18784;BME280;9520;50.954;6.968;2023-02-17T00:27:34;101552.97;;;17.50;48.26
18784;BME280;9520;50.954;6.968;2023-02-17T00:27:56;101539.63;;;17.50;48.24
18784;BME280;9520;50.954;6.968;2023-02-17T00:28:18;101537.97;;;17.46;48.21
18784;BME280;9520;50.954;6.968;2023-02-17T00:28:45;101553.00;;;17.48;48.36
18784;BME280;9520;50.954;6.968;2023-02-17T00:29:07;101554.16;;;17.40;48.59
18784;BME280;9520;50.954;6.968;2023-02-17T00:29:29;101555.81;;;17.44;48.46
18784;BME280;9520;50.954;6.968;2023-02-17T00:29:52;101545.44;;;17.33;48.72
18784;BME280;9520;50.954;6.968;2023-02-17T00:30:15;101549.59;;;17.43;48.75
18784;BME280;9520;50.954;6.968;2023-02-17T00:30:38;101547.63;;;17.50;48.45
18784;BME280;9520;50.954;6.968;2023-02-17T00:31:04;101548.53;;;17.49;48.64
18784;BME280;9520;50.954;6.968;2023-02-17T00:31:26;101548.50;;;17.50;48.37
18784;BME280;9520;50.954;6.968;2023-02-17T00:31:52;101544.72;;;17.57;48.35
18784;BME280;9520;50.954;6.968;2023-02-17T00:32:16;101550.94;;;17.58;48.23
18784;BME280;9520;50.954;6.968;2023-02-17T00:32:38;101544.72;;;17.57;48.14
18784;BME280;9520;50.954;6.968;2023-02-17T00:33:01;101545.41;;;17.65;48.14
18784;BME280;9520;50.954;6.968;2023-02-17T00:33:23;101547.06;;;17.69;47.98
18784;BME280;9520;50.954;6.968;2023-02-17T00:33:44;101543.38;;;17.74;47.97
18784;BME280;9520;50.954;6.968;2023-02-17T00:34:06;101540.59;;;17.77;47.74
18784;BME280;9520;50.954;6.968;2023-02-17T00:34:29;101544.06;;;17.80;47.79
18784;BME280;9520;50.954;6.968;2023-02-17T00:34:50;101544.81;;;17.85;47.69
18784;BME280;9520;50.954;6.968;2023-02-17T00:35:12;101541.47;;;17.77;47.90
18784;BME280;9520;50.954;6.968;2023-02-17T00:35:38;101542.28;;;17.81;47.74
18784;BME280;9520;50.954;6.968;2023-02-17T00:36:03;101540.34;;;17.86;47.75
18784;BME280;9520;50.954;6.968;2023-02-17T00:36:27;101537.59;;;17.87;47.70
18784;BME280;9520;50.954;6.968;2023-02-17T00:36:48;101533.88;;;17.93;47.60
18784;BME280;9520;50.954;6.968;2023-02-17T00:37:11;101539.97;;;17.68;47.93
18784;BME280;9520;50.954;6.968;2023-02-17T00:37:34;101532.06;;;17.65;47.92
18784;BME280;9520;50.954;6.968;2023-02-17T00:37:56;101541.69;;;17.71;47.92
18784;BME280;9520;50.954;6.968;2023-02-17T00:38:17;101533.56;;;17.74;47.92
18784;BME280;9520;50.954;6.968;2023-02-17T00:38:41;101539.72;;;17.76;47.87
18784;BME280;9520;50.954;6.968;2023-02-17T00:39:04;101526.94;;;17.56;48.05
18784;BME280;9520;50.954;6.968;2023-02-17T00:39:25;101538.19;;;17.69;47.97
18784;BME280;9520;50.954;6.968;2023-02-17T00:39:49;101534.50;;;17.73;47.88
18784;BME280;9520;50.954;6.968;2023-02-17T00:40:13;101540.53;;;17.80;48.02
18784;BME280;9520;50.954;6.968;2023-02-17T00:40:35;101534.31;;;17.79;47.83
18784;BME280;9520;50.954;6.968;2023-02-17T00:40:57;101530.50;;;17.86;47.85
18784;BME280;9520;50.954;6.968;2023-02-17T00:41:20;101535.50;;;17.69;48.25
18784;BME280;9520;50.954;6.968;2023-02-17T00:41:43;101540.38;;;17.55;48.45
18784;BME280;9520;50.954;6.968;2023-02-17T00:42:05;101545.88;;;17.49;48.58
18784;BME280;9520;50.954;6.968;2023-02-17T00:42:27;101541.41;;;17.49;48.82
18784;BME280;9520;50.954;6.968;2023-02-17T00:42:52;101538.47;;;17.60;48.69
18784;BME280;9520;50.954;6.968;2023-02-17T00:43:15;101531.38;;;17.59;48.72
18784;BME280;9520;50.954;6.968;2023-02-17T00:43:36;101523.44;;;17.56;48.41
18784;BME280;9520;50.954;6.968;2023-02-17T00:44:01;101541.75;;;17.68;48.20
18784;BME280;9520;50.954;6.968;2023-02-17T00:44:23;101542.50;;;17.73;48.16
18784;BME280;9520;50.954;6.968;2023-02-17T00:44:45;101534.31;;;17.79;48.19
18784;BME280;9520;50.954;6.968;2023-02-17T00:45:08;101536.00;;;17.82;47.78
18784;BME280;9520;50.954;6.968;2023-02-17T00:45:30;101537.56;;;17.89;47.87
18784;BME280;9520;50.954;6.968;2023-02-17T00:45:52;101530.25;;;17.95;47.85
18784;BME280;9520;50.954;6.968;2023-02-17T00:46:15;101539.97;;;17.96;47.54
18784;BME280;9520;50.954;6.968;2023-02-17T00:46:38;101543.44;;;18.00;47.59
18784;BME280;9520;50.954;6.968;2023-02-17T00:47:00;101541.84;;;17.94;47.81
18784;BME280;9520;50.954;6.968;2023-02-17T00:47:22;101536.88;;;17.82;47.71
18784;BME280;9520;50.954;6.968;2023-02-17T00:47:45;101546.47;;;17.60;48.25
18784;BME280;9520;50.954;6.968;2023-02-17T00:48:10;101539.63;;;17.50;48.92
18784;BME280;9520;50.954;6.968;2023-02-17T00:48:32;101548.25;;;17.59;48.55
18784;BME280;9520;50.954;6.968;2023-02-17T00:48:55;101538.41;;;17.61;48.59
18784;BME280;9520;50.954;6.968;2023-02-17T00:49:18;101546.31;;;17.64;48.57
18784;BME280;9520;50.954;6.968;2023-02-17T00:49:41;101547.38;;;17.57;48.79
18784;BME280;9520;50.954;6.968;2023-02-17T00:50:03;101543.94;;;17.54;48.82
18784;BME280;9520;50.954;6.968;2023-02-17T00:50:26;101551.03;;;17.55;48.87
18784;BME280;9520;50.954;6.968;2023-02-17T00:50:49;101545.78;;;17.52;48.97
18784;BME280;9520;50.954;6.968;2023-02-17T00:51:11;101536.13;;;17.48;48.97
18784;BME280;9520;50.954;6.968;2023-02-17T00:51:33;101548.41;;;17.53;48.80
18784;BME280;9520;50.954;6.968;2023-02-17T00:51:58;101550.16;;;17.54;48.75
18784;BME280;9520;50.954;6.968;2023-02-17T00:52:21;101542.94;;;17.59;48.72
18784;BME280;9520;50.954;6.968;2023-02-17T00:52:43;101539.28;;;17.62;48.57
18784;BME280;9520;50.954;6.968;2023-02-17T00:53:04;101541.00;;;17.64;48.75
18784;BME280;9520;50.954;6.968;2023-02-17T00:53:26;101544.38;;;17.69;48.51
18784;BME280;9520;50.954;6.968;2023-02-17T00:53:50;101543.41;;;17.72;48.55
18784;BME280;9520;50.954;6.968;2023-02-17T00:54:12;101539.09;;;17.68;48.26
18784;BME280;9520;50.954;6.968;2023-02-17T00:54:34;101542.53;;;17.72;48.33
18784;BME280;9520;50.954;6.968;2023-02-17T00:54:56;101546.97;;;17.73;48.49
18784;BME280;9520;50.954;6.968;2023-02-17T00:55:18;101536.28;;;17.73;48.32
18784;BME280;9520;50.954;6.968;2023-02-17T00:55:41;101544.34;;;17.71;48.48
18784;BME280;9520;50.954;6.968;2023-02-17T00:56:04;101546.81;;;17.77;48.33
18784;BME280;9520;50.954;6.968;2023-02-17T00:56:26;101545.19;;;17.72;48.33
18784;BME280;9520;50.954;6.968;2023-02-17T00:56:49;101543.25;;;17.77;48.21
18784;BME280;9520;50.954;6.968;2023-02-17T00:57:11;101541.28;;;17.83;48.24
18784;BME280;9520;50.954;6.968;2023-02-17T00:57:32;101548.59;;;17.77;47.98
18784;BME280;9520;50.954;6.968;2023-02-17T00:57:54;101545.16;;;17.73;48.36
18784;BME280;9520;50.954;6.968;2023-02-17T00:58:17;101538.91;;;17.74;48.12
18784;BME280;9520;50.954;6.968;2023-02-17T00:58:39;101546.75;;;17.80;48.13
18784;BME280;9520;50.954;6.968;2023-02-17T00:59:03;101550.03;;;17.88;48.04
18784;BME280;9520;50.954;6.968;2023-02-17T00:59:27;101549.91;;;17.91;47.87
18784;BME280;9520;50.954;6.968;2023-02-17T00:59:50;101551.59;;;17.95;47.90
18784;BME280;9520;50.954;6.968;2023-02-17T01:00:13;101545.47;;;17.92;47.89
18784;BME280;9520;50.954;6.968;2023-02-17T01:00:34;101545.38;;;17.95;47.71
18784;BME280;9520;50.954;6.968;2023-02-17T01:00:57;101547.97;;;17.96;47.89
18784;BME280;9520;50.954;6.968;2023-02-17T01:01:20;101544.59;;;17.91;47.93
18784;BME280;9520;50.954;6.968;2023-02-17T01:01:42;101546.63;;;17.83;48.11
18784;BME280;9520;50.954;6.968;2023-02-17T01:02:03;101550.16;;;17.84;48.09
18784;BME280;9520;50.954;6.968;2023-02-17T01:02:26;101551.13;;;17.81;48.34
18784;BME280;9520;50.954;6.968;2023-02-17T01:02:49;101551.13;;;17.81;48.29
18784;BME280;9520;50.954;6.968;2023-02-17T01:03:11;101542.28;;;17.81;48.19
18784;BME280;9520;50.954;6.968;2023-02-17T01:03:33;101551.09;;;17.83;48.02
18784;BME280;9520;50.954;6.968;2023-02-17T01:03:55;101551.84;;;17.86;48.08
18784;BME280;9520;50.954;6.968;2023-02-17T01:04:17;101545.53;;;17.90;48.10
18784;BME280;9520;50.954;6.968;2023-02-17T01:04:41;101554.31;;;17.94;47.79
18784;BME280;9520;50.954;6.968;2023-02-17T01:05:04;101548.94;;;17.95;47.77
18784;BME280;9520;50.954;6.968;2023-02-17T01:05:27;101547.03;;;17.99;47.79
18784;BME280;9520;50.954;6.968;2023-02-17T01:05:50;101555.81;;;18.02;47.62
18784;BME280;9520;50.954;6.968;2023-02-17T01:06:18;101550.41;;;18.04;47.47
18784;BME280;9520;50.954;6.968;2023-02-17T01:06:41;101543.44;;;18.00;47.69
18784;BME280;9520;50.954;6.968;2023-02-17T01:07:03;101548.94;;;17.95;47.64
18784;BME280;9520;50.954;6.968;2023-02-17T01:07:26;101555.22;;;17.93;47.96
18784;BME280;9520;50.954;6.968;2023-02-17T01:07:48;101543.59;;;17.95;47.90
18784;BME280;9520;50.954;6.968;2023-02-17T01:08:10;101543.09;;;17.83;48.14
18784;BME280;9520;50.954;6.968;2023-02-17T01:08:33;101544.97;;;17.79;48.13
18784;BME280;9520;50.954;6.968;2023-02-17T01:08:55;101544.81;;;17.85;48.01
18784;BME280;9520;50.954;6.968;2023-02-17T01:09:17;101550.94;;;17.87;48.07
18784;BME280;9520;50.954;6.968;2023-02-17T01:09:39;101538.19;;;17.69;48.29
18784;BME280;9520;50.954;6.968;2023-02-17T01:10:01;101533.94;;;17.62;48.57
18784;BME280;9520;50.954;6.968;2023-02-17T01:10:25;101535.16;;;17.50;48.68
18784;BME280;9520;50.954;6.968;2023-02-17T01:10:49;101531.38;;;17.59;48.61
18784;BME280;9520;50.954;6.968;2023-02-17T01:11:16;101538.31;;;17.64;48.52
18784;BME280;9520;50.954;6.968;2023-02-17T01:11:39;101536.38;;;17.69;48.31
18784;BME280;9520;50.954;6.968;2023-02-17T01:12:01;101540.25;;;17.58;48.42
18784;BME280;9520;50.954;6.968;2023-02-17T01:12:25;101539.06;;;17.39;48.88
18784;BME280;9520;50.954;6.968;2023-02-17T01:12:49;101535.38;;;17.43;48.89
18784;BME280;9520;50.954;6.968;2023-02-17T01:13:15;101533.00;;;17.34;49.36
18784;BME280;9520;50.954;6.968;2023-02-17T01:13:37;101527.44;;;17.41;49.36
18784;BME280;9520;50.954;6.968;2023-02-17T01:14:02;101537.03;;;17.47;49.20
18784;BME280;9520;50.954;6.968;2023-02-17T01:14:28;101521.13;;;17.44;49.26
18784;BME280;9520;50.954;6.968;2023-02-17T01:14:49;101523.75;;;17.45;49.06
18784;BME280;9520;50.954;6.968;2023-02-17T01:15:12;101530.47;;;17.58;49.03
18784;BME280;9520;50.954;6.968;2023-02-17T01:15:36;101536.53;;;17.65;48.70
18784;BME280;9520;50.954;6.968;2023-02-17T01:15:58;101526.59;;;17.70;48.52
18784;BME280;9520;50.954;6.968;2023-02-17T01:16:22;101527.63;;;17.66;48.60
18784;BME280;9520;50.954;6.968;2023-02-17T01:16:47;101528.38;;;17.69;48.59
18784;BME280;9520;50.954;6.968;2023-02-17T01:17:09;101530.00;;;17.75;48.54
18784;BME280;9520;50.954;6.968;2023-02-17T01:17:31;101528.84;;;17.82;48.19
18784;BME280;9520;50.954;6.968;2023-02-17T01:17:53;101532.22;;;17.89;48.02
18784;BME280;9520;50.954;6.968;2023-02-17T01:18:17;101524.09;;;17.92;47.93
18784;BME280;9520;50.954;6.968;2023-02-17T01:18:39;101527.56;;;17.95;47.81
18784;BME280;9520;50.954;6.968;2023-02-17T01:19:01;101531.97;;;17.96;47.94
18784;BME280;9520;50.954;6.968;2023-02-17T01:19:24;101527.41;;;18.00;47.71
18784;BME280;9520;50.954;6.968;2023-02-17T01:19:47;101521.97;;;18.03;47.65
18784;BME280;9520;50.954;6.968;2023-02-17T01:20:10;101527.34;;;18.01;47.61
18784;BME280;9520;50.954;6.968;2023-02-17T01:20:33;101537.16;;;18.01;48.00
18784;BME280;9520;50.954;6.968;2023-02-17T01:21:38;101521.94;;;18.04;47.52
18784;BME280;9520;50.954;6.968;2023-02-17T01:22:04;101523.69;;;18.05;47.60
18784;BME280;9520;50.954;6.968;2023-02-17T01:22:26;101512.94;;;18.07;47.46
18784;BME280;9520;50.954;6.968;2023-02-17T01:22:48;101527.78;;;18.16;47.56
18784;BME280;9520;50.954;6.968;2023-02-17T01:23:12;101512.63;;;18.16;47.33
18784;BME280;9520;50.954;6.968;2023-02-17T01:23:34;101524.03;;;18.21;47.40
18784;BME280;9520;50.954;6.968;2023-02-17T01:23:58;101526.63;;;18.24;47.17
18784;BME280;9520;50.954;6.968;2023-02-17T01:24:22;101526.69;;;18.21;47.00
18784;BME280;9520;50.954;6.968;2023-02-17T01:24:44;101527.72;;;18.17;47.27
18784;BME280;9520;50.954;6.968;2023-02-17T01:25:06;101529.59;;;18.15;47.47
18784;BME280;9520;50.954;6.968;2023-02-17T01:25:28;101515.38;;;18.15;47.17
18784;BME280;9520;50.954;6.968;2023-02-17T01:25:50;101519.84;;;18.14;47.42
18784;BME280;9520;50.954;6.968;2023-02-17T01:26:13;101517.53;;;18.02;47.63
18784;BME280;9520;50.954;6.968;2023-02-17T01:26:36;101522.16;;;17.97;47.74
18784;BME280;9520;50.954;6.968;2023-02-17T01:27:01;101521.25;;;17.98;47.44
18784;BME280;9520;50.954;6.968;2023-02-17T01:27:22;101520.72;;;17.87;47.82
18784;BME280;9520;50.954;6.968;2023-02-17T01:27:44;101526.84;;;17.90;47.99
18784;BME280;9520;50.954;6.968;2023-02-17T01:28:08;101514.25;;;17.94;47.87
18784;BME280;9520;50.954;6.968;2023-02-17T01:28:33;101521.28;;;17.96;47.81
18784;BME280;9520;50.954;6.968;2023-02-17T01:28:57;101519.34;;;18.01;47.77
18784;BME280;9520;50.954;6.968;2023-02-17T01:29:22;101507.75;;;18.02;47.78
18784;BME280;9520;50.954;6.968;2023-02-17T01:29:45;101513.91;;;18.04;47.64
18784;BME280;9520;50.954;6.968;2023-02-17T01:30:07;101513.81;;;18.07;47.52
18784;BME280;9520;50.954;6.968;2023-02-17T01:30:29;101515.53;;;18.10;47.35
18784;BME280;9520;50.954;6.968;2023-02-17T01:30:51;101508.31;;;18.12;47.49
18784;BME280;9520;50.954;6.968;2023-02-17T01:31:15;101511.81;;;18.14;47.23
18784;BME280;9520;50.954;6.968;2023-02-17T01:31:38;101511.75;;;18.16;47.18
18784;BME280;9520;50.954;6.968;2023-02-17T01:32:03;101513.47;;;18.18;47.31
18784;BME280;9520;50.954;6.968;2023-02-17T01:32:24;101505.06;;;18.02;47.56
18784;BME280;9520;50.954;6.968;2023-02-17T01:32:48;101517.66;;;17.99;47.45
18784;BME280;9520;50.954;6.968;2023-02-17T01:33:10;101508.81;;;17.97;47.81
18784;BME280;9520;50.954;6.968;2023-02-17T01:33:32;101506.84;;;18.03;47.46
18784;BME280;9520;50.954;6.968;2023-02-17T01:33:55;101505.75;;;18.09;47.26
18784;BME280;9520;50.954;6.968;2023-02-17T01:34:18;101504.56;;;18.18;47.43
18784;BME280;9520;50.954;6.968;2023-02-17T01:34:40;101506.22;;;18.22;47.09
18784;BME280;9520;50.954;6.968;2023-02-17T01:35:02;101506.22;;;18.22;47.12
18784;BME280;9520;50.954;6.968;2023-02-17T01:35:23;101497.25;;;18.24;46.85
18784;BME280;9520;50.954;6.968;2023-02-17T01:35:45;101501.66;;;18.25;46.87
18784;BME280;9520;50.954;6.968;2023-02-17T01:36:11;101501.72;;;18.24;47.01
18784;BME280;9520;50.954;6.968;2023-02-17T01:36:33;101506.31;;;18.19;47.20
18784;BME280;9520;50.954;6.968;2023-02-17T01:36:55;101506.53;;;18.12;47.34
18784;BME280;9520;50.954;6.968;2023-02-17T01:37:17;101494.34;;;18.04;47.52
18784;BME280;9520;50.954;6.968;2023-02-17T01:37:39;101501.28;;;18.09;47.55
18784;BME280;9520;50.954;6.968;2023-02-17T01:38:01;101504.88;;;18.08;47.35
18784;BME280;9520;50.954;6.968;2023-02-17T01:38:23;101498.72;;;18.06;47.29
18784;BME280;9520;50.954;6.968;2023-02-17T01:38:44;101503.75;;;18.16;47.38
18784;BME280;9520;50.954;6.968;2023-02-17T01:39:06;101502.75;;;18.20;47.00
18784;BME280;9520;50.954;6.968;2023-02-17T01:39:29;101503.50;;;18.23;47.01
18784;BME280;9520;50.954;6.968;2023-02-17T01:39:51;101509.69;;;18.25;47.06
18784;BME280;9520;50.954;6.968;2023-02-17T01:40:13;101504.88;;;18.08;47.14
18784;BME280;9520;50.954;6.968;2023-02-17T01:40:35;101500.91;;;17.94;47.76
18784;BME280;9520;50.954;6.968;2023-02-17T01:40:58;101498.31;;;17.64;48.18
18784;BME280;9520;50.954;6.968;2023-02-17T01:41:22;101498.47;;;17.57;48.69
18784;BME280;9520;50.954;6.968;2023-02-17T01:41:45;101501.38;;;17.51;48.57
18784;BME280;9520;50.954;6.968;2023-02-17T01:42:13;101495.78;;;17.60;48.75
18784;BME280;9520;50.954;6.968;2023-02-17T01:42:35;101491.97;;;17.67;48.61
18784;BME280;9520;50.954;6.968;2023-02-17T01:43:00;101499.34;;;17.59;48.50
18784;BME280;9520;50.954;6.968;2023-02-17T01:43:22;101494.41;;;17.45;48.63
18784;BME280;9520;50.954;6.968;2023-02-17T01:44:02;101496.03;;;17.51;49.03
18784;BME280;9520;50.954;6.968;2023-02-17T01:44:30;101499.31;;;17.60;48.61
18784;BME280;9520;50.954;6.968;2023-02-17T01:45:52;101479.47;;;17.69;48.42
18784;BME280;9520;50.954;6.968;2023-02-17T01:46:16;101502.13;;;17.84;48.24
18784;BME280;9520;50.954;6.968;2023-02-17T01:46:40;101496.19;;;17.76;48.16
18784;BME280;9520;50.954;6.968;2023-02-17T01:47:04;101500.78;;;17.71;48.29
18784;BME280;9520;50.954;6.968;2023-02-17T01:47:26;101490.28;;;17.64;48.45
18784;BME280;9520;50.954;6.968;2023-02-17T01:47:50;101495.59;;;17.66;48.46
18784;BME280;9520;50.954;6.968;2023-02-17T01:48:17;101497.28;;;17.68;48.39
18784;BME280;9520;50.954;6.968;2023-02-17T01:48:43;101502.88;;;17.61;48.45
18784;BME280;9520;50.954;6.968;2023-02-17T01:49:16;101499.47;;;17.54;48.67
18784;BME280;9520;50.954;6.968;2023-02-17T01:49:40;101493.00;;;17.63;48.57
18784;BME280;9520;50.954;6.968;2023-02-17T01:50:03;101493.78;;;17.66;48.55
18784;BME280;9520;50.954;6.968;2023-02-17T01:50:31;101500.06;;;17.65;48.50
18784;BME280;9520;50.954;6.968;2023-02-17T01:50:57;101495.53;;;17.67;48.69
18784;BME280;9520;50.954;6.968;2023-02-17T01:51:22;101494.34;;;17.76;48.31
18784;BME280;9520;50.954;6.968;2023-02-17T01:51:49;101497.66;;;17.84;48.30
18784;BME280;9520;50.954;6.968;2023-02-17T01:52:19;101499.47;;;17.84;47.97
18784;BME280;9520;50.954;6.968;2023-02-17T01:52:45;101491.41;;;17.85;48.01
18784;BME280;9520;50.954;6.968;2023-02-17T01:53:08;101498.41;;;17.89;48.13
18784;BME280;9520;50.954;6.968;2023-02-17T01:53:34;101498.28;;;17.92;47.94
18784;BME280;9520;50.954;6.968;2023-02-17T01:54:00;101492.00;;;17.95;48.05
18784;BME280;9520;50.954;6.968;2023-02-17T01:54:27;101491.84;;;17.99;47.78
18784;BME280;9520;50.954;6.968;2023-02-17T01:54:54;101494.31;;;18.05;47.73
18784;BME280;9520;50.954;6.968;2023-02-17T01:55:21;101488.97;;;18.05;47.52
18784;BME280;9520;50.954;6.968;2023-02-17T01:55:45;101494.81;;;18.17;47.50
18784;BME280;9520;50.954;6.968;2023-02-17T01:56:09;101493.06;;;18.16;47.42
18784;BME280;9520;50.954;6.968;2023-02-17T01:56:34;101484.34;;;18.10;47.50
18784;BME280;9520;50.954;6.968;2023-02-17T01:56:59;101492.09;;;18.18;47.35
18784;BME280;9520;50.954;6.968;2023-02-17T01:57:25;101490.19;;;18.22;47.24
18784;BME280;9520;50.954;6.968;2023-02-17T01:57:53;101478.59;;;18.23;47.24
18784;BME280;9520;50.954;6.968;2023-02-17T01:58:19;101493.56;;;18.27;47.03
18784;BME280;9520;50.954;6.968;2023-02-17T01:58:47;101489.22;;;18.24;47.02
18784;BME280;9520;50.954;6.968;2023-02-17T01:59:16;101486.44;;;18.27;47.07
18784;BME280;9520;50.954;6.968;2023-02-17T01:59:40;101488.44;;;18.21;47.24
18784;BME280;9520;50.954;6.968;2023-02-17T02:00:02;101493.69;;;18.24;47.03
18784;BME280;9520;50.954;6.968;2023-02-17T02:00:33;101487.34;;;18.26;47.03
18784;BME280;9520;50.954;6.968;2023-02-17T02:00:59;101478.06;;;18.11;47.28
18784;BME280;9520;50.954;6.968;2023-02-17T02:01:22;101489.06;;;18.02;47.58
18784;BME280;9520;50.954;6.968;2023-02-17T02:01:44;101482.13;;;17.97;47.73
18784;BME280;9520;50.954;6.968;2023-02-17T02:02:06;101479.38;;;18.00;47.57
18784;BME280;9520;50.954;6.968;2023-02-17T02:02:29;101478.78;;;17.90;47.74
18784;BME280;9520;50.954;6.968;2023-02-17T02:02:52;101482.28;;;17.92;47.88
18784;BME280;9520;50.954;6.968;2023-02-17T02:03:14;101483.19;;;17.91;47.78
18784;BME280;9520;50.954;6.968;2023-02-17T02:03:37;101473.47;;;17.90;47.76
18784;BME280;9520;50.954;6.968;2023-02-17T02:04:01;101483.31;;;17.88;47.83
18784;BME280;9520;50.954;6.968;2023-02-17T02:04:27;101482.28;;;17.92;47.80